North Sioux City, South Dakota
Current Conditions -  °F | °C
As of 7:52 AM on Thursday 27 Nov 2014 (Local Time) from KSUX Reporting Station
Scattered Clouds Scattered Clouds  
Wind Chill: -3°   Ceiling: Unl
Heat Index:   Visibility: 10mi
Dew Point: -9°   Wind: 7mph
Humidity: 46%   Direction: 60°ENE
Pressure: 30.53"   Gusts: NA
Location:  42.53°N, 96.48°W
Report Text: KSUX 271352Z 06006KT 10SM SCT041 M13/M23 A3053 RMK AO2 SLP362 T11331228
Loading
Personal Weather Stations






























Interactive Weather Map New forecast layout! Learn more

10-Day Weather Forecast

Advertisements
Track Severe Weather on mobile